Huvudsida
METAR-TAF:

METAR-TAF

Flygplatser :

Vadsø flygplats

Vadsø, Norge

latitud: 70-04N, longitud: 029-51E, höjd: 3 m

Aktuellt väderrapport

Denna rapport gjordes för 42 minuter sedan, klockan 05:50 UTC
Vind 18 kt från ost/nordost
Temperatur 6°C
Fuktighet 100%
Tryck 996 hPa
Sikt 10 km eller mer
Spridda moln på en höjd av 300 ft
Brutna moln på en höjd av 500 ft
lätt regn

METAR: ENVD 210550Z 06018KT 9999 -RA SCT003 BKN005 06/06 Q0996

Tid: 08:32 (06:32 UTC)

Väderprognos

Denna rapport gjordes för 1 timme och 32 minuter sedan, klockan 05:00 UTC
Prognos gäller från 21 kl. 06 UTC till 21 kl. 15 UTC
Vind 15 kt från nordost
Sikt 10 km eller mer
Spridda moln på en höjd av 600 ft
Brutna moln på en höjd av 1500 ft
lätt regn
Temporärt
från 21 kl. 06 UTC till 21 kl. 15 UTC
Brutna moln på en höjd av 600 ft
regn, duggregn

TAF: ENVD 210500Z 2106/2115 05015KT 9999 -RA SCT006 BKN015 TEMPO 2106/2115 RADZ BKN006

Aktuella väderrapporter och prognoser från 4000 flygplatser (METAR- och TAF-rapporter).

De tillgängliga stationerna syns som gula och röda prickar på kartan.

För musen över prickarna för att se namnen på stationerna.

Klicka sedan för att få väderrapporter och prognoser.

För att ändra kartan: Klicka på de gröna knapparna med ett svart kors på för att zooma in; den gröna knappen med ett streck på för att zooma ut; eller på de gröna pilarna för angränsande kartor.


METAR-TAF: